createdAt,value
2019-04-05T00:01:04.600Z,5.90
2019-04-05T00:03:33.088Z,6.33
2019-04-05T00:06:01.702Z,6.20
2019-04-05T00:08:30.706Z,6.37
2019-04-05T00:10:59.433Z,6.47
2019-04-05T00:13:28.053Z,6.33
2019-04-05T00:15:56.788Z,5.90
2019-04-05T00:18:25.304Z,6.70
2019-04-05T00:20:53.940Z,5.50
2019-04-05T00:23:22.842Z,5.83
2019-04-05T00:25:51.800Z,5.20
2019-04-05T00:28:20.646Z,6.00
2019-04-05T00:30:49.270Z,6.77
2019-04-05T00:33:17.841Z,7.23
2019-04-05T00:35:46.495Z,5.83
2019-04-05T00:38:15.012Z,5.40
2019-04-05T00:40:43.678Z,6.30
2019-04-05T00:43:12.256Z,5.77
2019-04-05T00:45:40.876Z,6.60
2019-04-05T00:48:09.362Z,5.90
2019-04-05T00:50:38.235Z,5.50
2019-04-05T00:53:06.939Z,6.73
2019-04-05T00:55:35.523Z,5.63
2019-04-05T00:58:04.207Z,5.87
2019-04-05T01:00:32.817Z,5.07
2019-04-05T01:03:01.451Z,5.53
2019-04-05T01:05:30.125Z,5.47
2019-04-05T01:07:58.810Z,6.50
2019-04-05T01:10:27.571Z,5.60
2019-04-05T01:12:56.675Z,5.00
2019-04-05T01:15:25.441Z,5.50
2019-04-05T01:17:54.216Z,6.23
2019-04-05T01:20:24.893Z,5.47
2019-04-05T01:22:54.137Z,5.70
2019-04-05T01:25:23.016Z,5.60
2019-04-05T01:27:51.743Z,6.07
2019-04-05T01:30:20.607Z,5.37
2019-04-05T01:32:49.251Z,5.90
2019-04-05T01:35:18.110Z,5.47
2019-04-05T01:37:47.505Z,5.93
2019-04-05T01:40:16.151Z,6.30
2019-04-05T01:42:45.155Z,5.73
2019-04-05T01:45:14.232Z,6.80
2019-04-05T01:47:42.914Z,6.20
2019-04-05T01:50:11.815Z,5.27
2019-04-05T01:52:42.148Z,6.57
2019-04-05T01:55:11.166Z,6.90
2019-04-05T01:57:40.128Z,6.10
2019-04-05T02:00:10.957Z,6.53
2019-04-05T02:02:42.595Z,6.00
2019-04-05T02:05:11.491Z,5.63
2019-04-05T02:07:40.480Z,6.63
2019-04-05T02:10:09.802Z,5.80
2019-04-05T02:12:39.261Z,7.43
2019-04-05T02:15:08.260Z,6.10
2019-04-05T02:17:37.288Z,6.27
2019-04-05T02:20:08.254Z,6.50
2019-04-05T02:22:37.491Z,5.97
2019-04-05T02:25:06.756Z,5.80
2019-04-05T02:27:35.652Z,5.97
2019-04-05T02:30:06.350Z,5.73
2019-04-05T02:32:35.164Z,5.93
2019-04-05T02:35:06.817Z,6.30
2019-04-05T02:37:35.875Z,5.93
2019-04-05T02:40:10.203Z,6.60
2019-04-05T02:42:39.421Z,6.10
2019-04-05T02:45:10.060Z,5.83
2019-04-05T02:47:41.726Z,5.70
2019-04-05T02:50:11.916Z,4.93
2019-04-05T02:52:43.689Z,6.97
2019-04-05T02:55:12.665Z,6.57
2019-04-05T02:57:43.282Z,5.90
2019-04-05T03:00:12.093Z,7.73
2019-04-05T03:02:41.050Z,6.53
2019-04-05T03:05:09.888Z,5.87
2019-04-05T03:07:38.513Z,6.23
2019-04-05T03:10:07.480Z,6.20
2019-04-05T03:12:36.644Z,6.67
2019-04-05T03:15:07.863Z,6.17
2019-04-05T03:17:38.393Z,7.10
2019-04-05T03:20:07.698Z,7.57
2019-04-05T03:22:37.079Z,6.27
2019-04-05T03:25:07.222Z,8.20
2019-04-05T03:27:37.340Z,7.60
2019-04-05T03:30:07.726Z,6.73
2019-04-05T03:32:36.503Z,7.93
2019-04-05T03:35:06.689Z,7.30
2019-04-05T03:37:35.333Z,7.73
2019-04-05T03:40:07.835Z,7.33
2019-04-05T03:42:36.532Z,6.97
2019-04-05T03:45:07.306Z,6.30
2019-04-05T03:47:36.020Z,6.53
2019-04-05T03:50:07.672Z,8.33
2019-04-05T03:52:36.532Z,7.13
2019-04-05T03:55:05.943Z,7.13
2019-04-05T03:57:34.579Z,7.87
2019-04-05T04:00:04.097Z,7.80
2019-04-05T04:02:32.885Z,7.77
2019-04-05T04:05:01.605Z,7.57
2019-04-05T04:07:30.773Z,7.30
2019-04-05T04:09:59.510Z,6.63
2019-04-05T04:12:28.317Z,7.73
2019-04-05T04:14:58.815Z,8.67
2019-04-05T04:17:27.496Z,8.80
2019-04-05T04:19:56.529Z,10.10
2019-04-05T04:22:29.908Z,8.33
2019-04-05T04:24:59.903Z,9.70
2019-04-05T04:27:29.175Z,9.10
2019-04-05T04:30:00.485Z,7.73
2019-04-05T04:32:29.675Z,9.03
2019-04-05T04:34:58.490Z,10.33
2019-04-05T04:37:27.154Z,9.60
2019-04-05T04:39:55.934Z,9.23
2019-04-05T04:42:24.632Z,7.37
2019-04-05T04:44:53.748Z,8.97
2019-04-05T04:47:26.860Z,7.93
2019-04-05T04:49:56.112Z,8.77
2019-04-05T04:52:25.212Z,9.83
2019-04-05T04:54:53.986Z,9.97
2019-04-05T04:57:22.944Z,11.77
2019-04-05T04:59:51.568Z,8.13
2019-04-05T05:02:20.188Z,7.60
2019-04-05T05:04:49.283Z,8.30
2019-04-05T05:07:18.056Z,10.30
2019-04-05T05:09:46.942Z,9.20
2019-04-05T05:12:15.532Z,8.63
2019-04-05T05:14:44.232Z,9.10
2019-04-05T05:17:13.247Z,9.87
2019-04-05T05:19:42.279Z,10.20
2019-04-05T05:22:11.232Z,9.60
2019-04-05T05:24:40.352Z,10.77
2019-04-05T05:27:09.245Z,9.03
2019-04-05T05:29:37.962Z,8.37
2019-04-05T05:32:09.481Z,8.67
2019-04-05T05:34:36.910Z,8.07
2019-04-05T05:37:05.687Z,9.03
2019-04-05T05:39:34.428Z,10.67
2019-04-05T05:42:03.634Z,11.47
2019-04-05T05:44:32.393Z,12.60
2019-04-05T05:47:00.961Z,10.40
2019-04-05T05:49:29.555Z,11.27
2019-04-05T05:51:58.831Z,10.83
2019-04-05T05:54:27.478Z,12.00
2019-04-05T05:56:56.037Z,10.90
2019-04-05T05:59:24.876Z,14.40
2019-04-05T06:01:53.854Z,8.90
2019-04-05T06:04:22.348Z,12.67
2019-04-05T06:06:51.220Z,15.10
2019-04-05T06:09:20.142Z,12.00
2019-04-05T06:11:48.712Z,8.87
2019-04-05T06:14:17.566Z,11.07
2019-04-05T06:16:46.875Z,10.93
2019-04-05T06:19:15.738Z,9.77
2019-04-05T06:21:44.446Z,10.30
2019-04-05T06:24:13.615Z,9.53
2019-04-05T06:26:42.198Z,11.73
2019-04-05T06:29:10.908Z,11.53
2019-04-05T06:31:39.610Z,10.30
2019-04-05T06:34:08.487Z,10.70
2019-04-05T06:36:37.318Z,9.53
2019-04-05T06:39:07.817Z,9.77
2019-04-05T06:41:36.861Z,9.77
2019-04-05T06:44:05.706Z,14.40
2019-04-05T06:46:34.527Z,10.77
2019-04-05T06:49:03.329Z,8.90
2019-04-05T06:51:32.029Z,9.53
2019-04-05T06:54:03.274Z,9.27
2019-04-05T06:56:31.453Z,10.83
2019-04-05T06:59:00.197Z,14.13
2019-04-05T07:01:28.982Z,8.60
2019-04-05T07:03:57.675Z,8.13
2019-04-05T07:06:26.858Z,9.97
2019-04-05T07:08:55.481Z,8.83
2019-04-05T07:11:24.527Z,10.40
2019-04-05T07:13:53.275Z,8.90
2019-04-05T07:16:21.939Z,9.20
2019-04-05T07:18:51.040Z,8.57
2019-04-05T07:21:19.783Z,8.67
2019-04-05T07:23:48.905Z,10.57
2019-04-05T07:26:17.501Z,10.10
2019-04-05T07:28:47.532Z,8.00
2019-04-05T07:31:16.315Z,9.63
2019-04-05T07:33:45.073Z,9.57
2019-04-05T07:36:13.976Z,9.43
2019-04-05T07:38:42.873Z,11.67
2019-04-05T07:41:11.805Z,9.07
2019-04-05T07:43:40.581Z,10.17
2019-04-05T07:46:09.149Z,9.83
2019-04-05T07:48:44.792Z,12.20
2019-04-05T07:51:08.235Z,9.57
2019-04-05T07:53:37.037Z,11.30
2019-04-05T07:56:05.565Z,10.00
2019-04-05T07:58:34.339Z,11.03
2019-04-05T08:01:05.157Z,11.10
2019-04-05T08:03:34.032Z,11.37
2019-04-05T08:06:02.519Z,10.10
2019-04-05T08:08:34.248Z,9.03
2019-04-05T08:11:03.083Z,11.93
2019-04-05T08:13:33.896Z,11.87
2019-04-05T08:16:02.559Z,11.53
2019-04-05T08:18:31.529Z,10.27
2019-04-05T08:21:00.093Z,10.77
2019-04-05T08:23:28.683Z,11.60
2019-04-05T08:25:57.865Z,10.20
2019-04-05T08:28:29.425Z,11.50
2019-04-05T08:30:56.943Z,10.93
2019-04-05T08:33:25.669Z,11.60
2019-04-05T08:35:54.368Z,11.17
2019-04-05T08:38:23.171Z,10.80
2019-04-05T08:40:51.812Z,17.40
2019-04-05T08:43:20.705Z,16.30
2019-04-05T08:45:49.396Z,13.30
2019-04-05T08:48:18.197Z,15.93
2019-04-05T08:50:46.831Z,13.33
2019-04-05T08:53:15.628Z,12.93
2019-04-05T08:55:44.283Z,16.07
2019-04-05T08:58:13.136Z,14.27
2019-04-05T09:00:42.268Z,17.90
2019-04-05T09:03:12.052Z,12.60
2019-04-05T09:05:41.130Z,12.33
2019-04-05T09:08:09.656Z,11.27
2019-04-05T09:10:38.378Z,14.50
2019-04-05T09:13:07.123Z,12.00
2019-04-05T09:15:35.842Z,9.90
2019-04-05T09:18:04.648Z,13.13
2019-04-05T09:20:33.516Z,13.33
2019-04-05T09:23:02.272Z,13.60
2019-04-05T09:25:30.814Z,12.90
2019-04-05T09:27:59.569Z,11.07
2019-04-05T09:30:28.433Z,12.60
2019-04-05T09:32:57.066Z,11.97
2019-04-05T09:35:25.578Z,12.17
2019-04-05T09:37:54.080Z,13.90
2019-04-05T09:40:22.800Z,13.23
2019-04-05T09:42:51.482Z,12.17
2019-04-05T09:45:20.200Z,14.33
2019-04-05T09:47:48.906Z,13.30
2019-04-05T09:50:17.679Z,12.40
2019-04-05T09:52:46.266Z,13.10
2019-04-05T09:55:15.175Z,12.30
2019-04-05T09:57:43.646Z,12.27
2019-04-05T10:00:18.011Z,13.73
2019-04-05T10:02:46.617Z,13.20
2019-04-05T10:05:15.398Z,13.90
2019-04-05T10:07:54.141Z,14.80
2019-04-05T10:10:15.938Z,13.83
2019-04-05T10:12:44.909Z,13.27
2019-04-05T10:15:13.816Z,13.80
2019-04-05T10:17:42.487Z,12.67
2019-04-05T10:20:11.970Z,12.60
2019-04-05T10:22:40.853Z,15.03
2019-04-05T10:25:09.885Z,12.67
2019-04-05T10:27:38.431Z,12.17
2019-04-05T10:30:09.485Z,13.37
2019-04-05T10:32:38.227Z,12.23
2019-04-05T10:35:07.750Z,12.70
2019-04-05T10:37:36.429Z,15.57
2019-04-05T10:40:07.102Z,14.40
2019-04-05T10:42:36.944Z,12.30
2019-04-05T10:45:12.406Z,13.33
2019-04-05T10:47:40.940Z,17.67
2019-04-05T10:50:12.096Z,16.57
2019-04-05T10:52:40.723Z,17.23
2019-04-05T10:55:09.954Z,16.37
2019-04-05T10:57:38.883Z,12.50
2019-04-05T11:00:13.983Z,14.77
2019-04-05T11:02:42.645Z,15.33
2019-04-05T11:05:11.817Z,13.27
2019-04-05T11:07:40.348Z,14.70
2019-04-05T11:10:09.475Z,11.57
2019-04-05T11:12:38.149Z,12.80
2019-04-05T11:15:07.491Z,12.17
2019-04-05T11:17:36.130Z,12.53
2019-04-05T11:20:20.720Z,13.23
2019-04-05T11:22:38.546Z,13.27
2019-04-05T11:25:07.992Z,13.63
2019-04-05T11:27:36.743Z,12.63
2019-04-05T11:30:07.769Z,13.33
2019-04-05T11:32:36.796Z,14.00
2019-04-05T11:35:07.749Z,12.47
2019-04-05T11:37:39.527Z,11.80
2019-04-05T11:40:10.818Z,14.00
2019-04-05T11:42:40.852Z,13.10
2019-04-05T11:45:10.240Z,14.23
2019-04-05T11:47:41.015Z,12.93
2019-04-05T11:50:11.120Z,12.13
2019-04-05T11:52:39.846Z,12.17
2019-04-05T11:55:09.542Z,11.37
2019-04-05T11:57:41.063Z,11.83
2019-04-05T12:00:17.830Z,11.43
2019-04-05T12:02:53.735Z,11.20
2019-04-05T12:05:22.579Z,11.87
2019-04-05T12:07:53.007Z,9.13
2019-04-05T12:10:21.681Z,12.37
2019-04-05T12:12:50.537Z,12.87
2019-04-05T12:15:19.175Z,11.20
2019-04-05T12:17:47.652Z,11.90
2019-04-05T12:20:17.224Z,10.80
2019-04-05T12:22:46.284Z,11.20
2019-04-05T12:25:14.899Z,11.57
2019-04-05T12:27:43.571Z,10.47
2019-04-05T12:30:14.306Z,12.23
2019-04-05T12:32:43.146Z,10.43
2019-04-05T12:35:12.243Z,9.57
2019-04-05T12:37:50.297Z,11.30
2019-04-05T12:40:11.485Z,11.67
2019-04-05T12:42:42.745Z,11.90
2019-04-05T12:45:14.734Z,10.33
2019-04-05T12:47:45.348Z,10.00
2019-04-05T12:50:14.540Z,11.93
2019-04-05T12:52:43.073Z,10.97
2019-04-05T12:55:11.831Z,10.03
2019-04-05T12:57:40.391Z,11.63
2019-04-05T13:00:13.311Z,10.60
2019-04-05T13:02:42.232Z,12.17
2019-04-05T13:05:11.524Z,10.20
2019-04-05T13:07:40.760Z,10.50
2019-04-05T13:10:09.782Z,10.67
2019-04-05T13:12:38.674Z,10.50
2019-04-05T13:15:13.749Z,8.70
2019-04-05T13:17:38.876Z,11.27
2019-04-05T13:20:08.863Z,9.73
2019-04-05T13:22:37.796Z,11.20
2019-04-05T13:25:10.627Z,10.27
2019-04-05T13:27:41.252Z,8.90
2019-04-05T13:30:08.587Z,9.13
2019-04-05T13:32:37.170Z,15.10
2019-04-05T13:35:06.890Z,10.87
2019-04-05T13:37:35.802Z,10.77
2019-04-05T13:40:06.531Z,9.83
2019-04-05T13:42:35.475Z,10.83
2019-04-05T13:45:06.514Z,10.13
2019-04-05T13:47:37.930Z,10.60
2019-04-05T13:50:10.900Z,11.13
2019-04-05T13:52:37.017Z,10.10
2019-04-05T13:55:10.520Z,9.43
2019-04-05T13:57:40.130Z,9.40
2019-04-05T14:00:09.897Z,8.53
2019-04-05T14:02:38.533Z,9.13
2019-04-05T14:05:07.601Z,11.40
2019-04-05T14:07:36.464Z,9.93
2019-04-05T14:10:12.281Z,9.67
2019-04-05T14:12:40.940Z,11.53
2019-04-05T14:15:11.367Z,9.90
2019-04-05T14:17:44.000Z,10.27
2019-04-05T14:20:11.723Z,8.70
2019-04-05T14:22:40.998Z,10.47
2019-04-05T14:25:11.488Z,10.07
2019-04-05T14:27:40.073Z,9.77
2019-04-05T14:30:09.357Z,9.93
2019-04-05T14:32:39.170Z,9.00
2019-04-05T14:35:09.122Z,9.07
2019-04-05T14:37:37.698Z,10.17
2019-04-05T14:40:10.274Z,9.27
2019-04-05T14:42:38.831Z,11.27
2019-04-05T14:45:08.149Z,11.20
2019-04-05T14:47:36.850Z,10.97
2019-04-05T14:50:09.733Z,9.57
2019-04-05T14:52:38.481Z,10.97
2019-04-05T14:55:07.080Z,9.63
2019-04-05T14:57:36.554Z,8.20
2019-04-05T15:00:09.151Z,8.27
2019-04-05T15:02:37.966Z,8.33
2019-04-05T15:05:08.423Z,9.87
2019-04-05T15:07:37.920Z,10.67
2019-04-05T15:10:07.206Z,9.87
2019-04-05T15:12:35.996Z,10.87
2019-04-05T15:15:07.595Z,10.23
2019-04-05T15:17:47.198Z,8.50
2019-04-05T15:20:08.336Z,7.43
2019-04-05T15:22:41.483Z,7.93
2019-04-05T15:25:10.336Z,8.90
2019-04-05T15:27:39.154Z,8.00
2019-04-05T15:30:08.098Z,6.97
2019-04-05T15:32:38.263Z,7.77
2019-04-05T15:35:08.258Z,6.00
2019-04-05T15:37:37.619Z,7.03
2019-04-05T15:40:08.056Z,8.40
2019-04-05T15:42:36.820Z,6.57
2019-04-05T15:45:08.396Z,6.30
2019-04-05T15:47:37.438Z,8.33
2019-04-05T15:50:07.978Z,6.37
2019-04-05T15:52:36.722Z,6.83
2019-04-05T15:55:08.444Z,6.20
2019-04-05T15:57:39.415Z,6.33
2019-04-05T16:00:10.599Z,7.83
2019-04-05T16:02:39.407Z,7.87
2019-04-05T16:05:08.897Z,6.90
2019-04-05T16:07:37.874Z,6.40
2019-04-05T16:10:09.177Z,7.63
2019-04-05T16:12:38.085Z,7.13
2019-04-05T16:15:07.791Z,7.07
2019-04-05T16:17:36.911Z,6.93
2019-04-05T16:20:10.435Z,7.40
2019-04-05T16:22:39.146Z,6.80
2019-04-05T16:25:08.440Z,5.93
2019-04-05T16:27:37.213Z,5.10
2019-04-05T16:30:07.599Z,6.70
2019-04-05T16:32:36.183Z,6.83
2019-04-05T16:35:07.131Z,6.17
2019-04-05T16:37:35.864Z,6.30
2019-04-05T16:40:07.366Z,6.93
2019-04-05T16:42:36.199Z,9.17
2019-04-05T16:45:09.156Z,8.03
2019-04-05T16:47:38.093Z,6.07
2019-04-05T16:50:08.120Z,8.77
2019-04-05T16:52:44.668Z,10.13
2019-04-05T16:55:07.648Z,8.60
2019-04-05T16:57:36.495Z,9.23
2019-04-05T17:00:08.711Z,7.13
2019-04-05T17:02:37.426Z,8.07
2019-04-05T17:05:06.963Z,8.10
2019-04-05T17:07:36.170Z,8.53
2019-04-05T17:10:05.734Z,8.47
2019-04-05T17:12:34.372Z,10.03
2019-04-05T17:15:03.028Z,10.57
2019-04-05T17:17:31.830Z,9.50
2019-04-05T17:20:00.586Z,10.47
2019-04-05T17:22:29.202Z,10.57
2019-04-05T17:24:58.039Z,10.07
2019-04-05T17:27:26.932Z,10.83
2019-04-05T17:29:55.785Z,10.80
2019-04-05T17:32:24.632Z,9.67
2019-04-05T17:34:54.676Z,9.97
2019-04-05T17:37:23.234Z,10.53
2019-04-05T17:39:52.046Z,12.47
2019-04-05T17:42:20.891Z,11.17
2019-04-05T17:44:49.580Z,10.27
2019-04-05T17:47:18.230Z,11.57
2019-04-05T17:49:46.686Z,11.20
2019-04-05T17:52:15.882Z,14.27
2019-04-05T17:54:44.572Z,11.07
2019-04-05T17:57:13.421Z,10.37
2019-04-05T17:59:42.552Z,10.90
2019-04-05T18:02:11.283Z,10.53
2019-04-05T18:04:40.103Z,13.17
2019-04-05T18:07:09.247Z,21.10
2019-04-05T18:09:37.806Z,25.37
2019-04-05T18:12:06.652Z,29.83
2019-04-05T18:14:35.199Z,39.93
2019-04-05T18:17:04.188Z,42.77
2019-04-05T18:19:32.647Z,44.70
2019-04-05T18:22:01.499Z,41.77
2019-04-05T18:24:30.200Z,43.40
2019-04-05T18:26:58.966Z,46.13
2019-04-05T18:29:27.752Z,43.90
2019-04-05T18:31:56.627Z,49.77
2019-04-05T18:34:25.088Z,42.43
2019-04-05T18:36:53.750Z,45.43
2019-04-05T18:39:22.438Z,48.13
2019-04-05T18:41:51.137Z,46.63
2019-04-05T18:44:19.862Z,48.87
2019-04-05T18:46:49.020Z,48.37
2019-04-05T18:49:18.012Z,45.03
2019-04-05T18:51:46.772Z,45.60
2019-04-05T18:54:15.526Z,43.27
2019-04-05T18:56:44.164Z,48.00
2019-04-05T18:59:12.733Z,48.40
2019-04-05T19:01:41.435Z,48.00
2019-04-05T19:04:10.474Z,47.00
2019-04-05T19:06:39.419Z,49.30
2019-04-05T19:09:08.411Z,48.60
2019-04-05T19:11:37.367Z,48.63
2019-04-05T19:14:06.655Z,46.97
2019-04-05T19:16:35.547Z,44.77
2019-04-05T19:19:04.384Z,43.93
2019-04-05T19:21:33.327Z,38.77
2019-04-05T19:24:02.121Z,41.63
2019-04-05T19:26:30.913Z,45.83
2019-04-05T19:29:00.007Z,43.20
2019-04-05T19:49:02.013Z,39.57
2019-04-05T19:51:30.905Z,44.67
2019-04-05T19:54:01.286Z,41.70
2019-04-05T19:56:30.279Z,43.00
2019-04-05T19:58:58.933Z,44.83
2019-04-05T20:01:27.739Z,41.70
2019-04-05T20:03:56.554Z,42.37
2019-04-05T20:06:25.385Z,39.87
2019-04-05T20:08:54.009Z,41.27
2019-04-05T20:11:22.573Z,41.30
2019-04-05T20:13:51.290Z,41.30
2019-04-05T20:16:20.026Z,42.13
2019-04-05T20:18:48.475Z,39.93
2019-04-05T20:21:17.215Z,39.30
2019-04-05T20:23:47.711Z,38.57
2019-04-05T20:26:16.235Z,41.37
2019-04-05T20:28:44.887Z,41.90
2019-04-05T20:31:13.486Z,41.33
2019-04-05T20:33:42.038Z,35.63
2019-04-05T20:36:10.489Z,36.57
2019-04-05T20:38:39.075Z,40.17
2019-04-05T20:41:07.614Z,35.70
2019-04-05T20:43:36.390Z,38.17
2019-04-05T20:46:05.288Z,40.30
2019-04-05T20:48:33.828Z,41.93
2019-04-05T20:51:02.449Z,40.20
2019-04-05T20:53:31.225Z,44.20
2019-04-05T20:55:59.908Z,41.80
2019-04-05T20:58:28.473Z,43.73
2019-04-05T21:00:59.305Z,43.03
2019-04-05T21:03:27.730Z,43.13
2019-04-05T21:05:56.904Z,38.20
2019-04-05T21:08:25.504Z,46.33
2019-04-05T21:10:54.097Z,41.90
2019-04-05T21:13:22.740Z,40.40
2019-04-05T21:15:51.413Z,37.83
2019-04-05T21:18:20.041Z,41.33
2019-04-05T21:20:48.631Z,37.83
2019-04-05T21:23:17.144Z,39.43
2019-04-05T21:25:45.619Z,35.57
2019-04-05T21:28:14.158Z,35.50
2019-04-05T21:30:42.924Z,34.13
2019-04-05T21:33:11.475Z,34.43
2019-04-05T21:35:39.993Z,30.77
2019-04-05T21:38:09.023Z,32.63
2019-04-05T21:40:37.632Z,32.50
2019-04-05T21:43:06.467Z,32.73
2019-04-05T21:45:35.035Z,29.43
2019-04-05T21:48:04.309Z,27.63
2019-04-05T21:50:32.796Z,27.50
2019-04-05T21:53:01.780Z,29.33
2019-04-05T21:55:30.407Z,27.13
2019-04-05T21:57:59.025Z,26.87
2019-04-05T22:00:34.800Z,27.73
2019-04-05T22:03:03.441Z,23.93
2019-04-05T22:05:32.175Z,24.53
2019-04-05T22:08:01.057Z,23.67
2019-04-05T22:10:29.772Z,25.80
2019-04-05T22:12:58.362Z,23.33
2019-04-05T22:15:27.124Z,25.57
2019-04-05T22:17:55.633Z,27.23
2019-04-05T22:20:24.290Z,24.97
2019-04-05T22:22:52.934Z,23.00
2019-04-05T22:25:21.624Z,28.93
2019-04-05T22:27:50.274Z,25.17
2019-04-05T22:30:18.878Z,27.97
2019-04-05T22:32:47.510Z,29.23
2019-04-05T22:35:16.265Z,33.63
2019-04-05T22:37:45.335Z,29.80
2019-04-05T22:40:14.281Z,33.53
2019-04-05T22:42:42.960Z,30.70
2019-04-05T22:45:11.956Z,33.53
2019-04-05T22:47:40.480Z,33.40
2019-04-05T22:50:09.242Z,31.80
2019-04-05T22:52:37.891Z,31.53
2019-04-05T22:55:11.600Z,30.33
2019-04-05T22:57:37.615Z,26.50
2019-04-05T23:00:08.669Z,29.43
2019-04-05T23:02:37.720Z,27.30
2019-04-05T23:05:07.336Z,25.00
2019-04-05T23:07:35.995Z,27.13
2019-04-05T23:10:07.458Z,26.70
2019-04-05T23:12:37.014Z,25.70
2019-04-05T23:15:10.030Z,24.63
2019-04-05T23:17:39.593Z,24.00
2019-04-05T23:20:09.285Z,25.47
2019-04-05T23:22:38.760Z,21.47
2019-04-05T23:25:07.575Z,30.77
2019-04-05T23:27:36.526Z,23.73
2019-04-05T23:30:06.776Z,24.80
2019-04-05T23:32:35.530Z,23.60
2019-04-05T23:35:06.095Z,24.70
2019-04-05T23:37:34.976Z,24.00
2019-04-05T23:40:04.199Z,23.63
2019-04-05T23:42:32.882Z,27.00
2019-04-05T23:45:01.754Z,25.30
2019-04-05T23:47:30.523Z,28.07
2019-04-05T23:49:59.171Z,22.73
2019-04-05T23:52:27.693Z,24.17
2019-04-05T23:54:56.168Z,24.47
2019-04-05T23:57:24.833Z,23.97
2019-04-05T23:59:53.426Z,24.90
